Time;durP1;ratioP1;P1;durP2;ratioP2;P2;SDS_P1;SDS_P2;PMS_P1;PMS_P2;Temp;Humidity;BMP_temperature;BMP_pressure;BME280_temperature;BME280_humidity;BME280_pressure;Samples;Min_cycle;Max_cycle;Signal;HPM_P1;HPM_P2
2023/08/07 00:00:12;;;;;;;5.88;3.13;;;15.80;99.90;;;;;;5108819;28;20040;-83
2023/08/07 00:02:38;;;;;;;5.10;2.42;;;15.80;99.90;;;;;;5107991;28;20052;-83
2023/08/07 00:05:07;;;;;;;5.68;3.03;;;15.80;99.90;;;;;;5109544;28;20587;-83
2023/08/07 00:07:33;;;;;;;6.93;3.10;;;15.80;99.90;;;;;;5114162;28;20044;-83
2023/08/07 00:10:00;;;;;;;8.40;3.58;;;15.80;99.90;;;;;;5113469;28;20045;-83
2023/08/07 00:12:27;;;;;;;5.38;3.28;;;15.80;99.90;;;;;;5113703;28;20486;-83
2023/08/07 00:14:52;;;;;;;6.78;3.25;;;15.80;99.90;;;;;;5109319;28;20401;-83
2023/08/07 00:17:18;;;;;;;6.72;2.88;;;15.80;99.90;;;;;;5108733;28;20510;-83
2023/08/07 00:19:44;;;;;;;7.82;3.92;;;15.80;99.90;;;;;;5109372;27;20104;-83
2023/08/07 00:22:09;;;;;;;6.75;3.13;;;15.80;99.90;;;;;;5093355;28;20039;-83
2023/08/07 00:24:35;;;;;;;5.22;2.55;;;15.70;99.90;;;;;;5112321;27;20134;-83
2023/08/07 00:27:01;;;;;;;5.47;2.90;;;15.70;99.90;;;;;;5122234;27;20043;-83
2023/08/07 00:29:26;;;;;;;6.13;3.13;;;15.70;99.90;;;;;;5114302;27;20101;-83
2023/08/07 00:31:52;;;;;;;7.20;3.00;;;15.70;99.90;;;;;;5123855;27;20039;-83
2023/08/07 00:34:18;;;;;;;6.90;3.35;;;15.70;99.90;;;;;;5113369;27;20054;-83
2023/08/07 00:36:43;;;;;;;4.68;2.53;;;15.70;99.90;;;;;;5113947;27;20138;-83
2023/08/07 00:39:09;;;;;;;5.90;2.67;;;15.70;99.90;;;;;;5112487;27;20035;-83
2023/08/07 00:41:35;;;;;;;7.85;2.70;;;15.70;99.90;;;;;;5120222;27;20040;-84
2023/08/07 00:44:00;;;;;;;6.40;2.45;;;15.70;99.90;;;;;;5114878;27;20075;-83
2023/08/07 00:46:29;;;;;;;6.28;2.80;;;15.70;99.90;;;;;;5115569;27;20147;-83
2023/08/07 00:48:55;;;;;;;8.30;2.65;;;15.60;99.90;;;;;;5111970;27;20566;-83
2023/08/07 00:51:21;;;;;;;4.97;2.55;;;15.70;99.90;;;;;;5113051;27;20059;-83
2023/08/07 00:53:48;;;;;;;4.93;2.72;;;15.60;99.90;;;;;;5110922;27;20040;-83
2023/08/07 00:56:14;;;;;;;6.50;2.30;;;15.60;99.90;;;;;;5115340;27;20046;-82
2023/08/07 00:58:40;;;;;;;4.72;2.20;;;15.50;99.90;;;;;;5111991;27;20062;-82
2023/08/07 01:01:06;;;;;;;8.02;3.03;;;15.50;99.90;;;;;;5112107;27;20082;-83
2023/08/07 01:03:32;;;;;;;6.75;2.45;;;15.60;99.90;;;;;;5112473;27;20048;-83
2023/08/07 01:05:57;;;;;;;6.70;2.25;;;15.60;99.90;;;;;;5106184;27;20058;-83
2023/08/07 01:08:24;;;;;;;5.75;2.20;;;15.50;99.90;;;;;;5125848;27;20053;-83
2023/08/07 01:11:08;;;;;;;6.60;2.55;;;15.50;99.90;;;;;;5113048;27;20031;-83
2023/08/07 01:13:42;;;;;;;7.40;2.75;;;15.50;99.90;;;;;;5106282;27;20036;-82
2023/08/07 01:16:27;;;;;;;7.85;2.55;;;15.50;99.90;;;;;;5111248;27;20115;-83
2023/08/07 01:18:54;;;;;;;6.85;2.85;;;15.50;99.90;;;;;;5120708;27;20046;-84
2023/08/07 01:21:21;;;;;;;7.10;2.80;;;15.50;99.90;;;;;;5110237;27;20398;-83
2023/08/07 01:23:47;;;;;;;4.45;2.40;;;15.50;99.90;;;;;;5118146;27;20034;-83
2023/08/07 01:26:14;;;;;;;6.72;2.70;;;15.50;99.90;;;;;;5111478;27;20051;-83
2023/08/07 01:28:48;;;;;;;9.77;2.80;;;15.50;99.90;;;;;;5115538;27;20096;-83
2023/08/07 01:31:15;;;;;;;7.27;2.90;;;15.50;99.90;;;;;;5113283;27;20108;-83
2023/08/07 01:33:56;;;;;;;6.05;2.50;;;15.40;99.90;;;;;;5115025;27;20335;-83
2023/08/07 01:36:24;;;;;;;6.05;2.50;;;15.30;99.90;;;;;;5116749;27;20478;-82
2023/08/07 01:38:52;;;;;;;5.90;2.50;;;15.40;99.90;;;;;;5111324;27;20046;-83
2023/08/07 01:41:19;;;;;;;6.80;2.70;;;15.40;99.90;;;;;;5109284;27;20039;-83
2023/08/07 01:43:45;;;;;;;6.68;3.20;;;15.40;99.90;;;;;;5120398;27;20075;-83
2023/08/07 01:46:11;;;;;;;6.95;2.92;;;15.30;99.90;;;;;;5095318;27;20602;-83
2023/08/07 01:48:36;;;;;;;5.32;2.50;;;15.30;99.90;;;;;;5116586;27;20051;-83
2023/08/07 01:51:02;;;;;;;6.80;2.58;;;15.20;99.90;;;;;;5112058;27;20039;-83
2023/08/07 01:53:28;;;;;;;5.53;2.60;;;15.20;99.90;;;;;;5117195;27;20035;-83
2023/08/07 01:55:53;;;;;;;5.18;2.50;;;15.20;99.90;;;;;;5112911;27;20031;-83
2023/08/07 01:58:19;;;;;;;6.38;3.10;;;15.20;99.90;;;;;;5123082;27;20541;-83
2023/08/07 02:00:45;;;;;;;5.55;2.80;;;15.20;99.90;;;;;;5113935;27;20436;-83
2023/08/07 02:03:10;;;;;;;7.10;2.83;;;15.30;99.90;;;;;;5113601;27;20066;-83
2023/08/07 02:05:36;;;;;;;4.97;2.75;;;15.20;99.90;;;;;;5098037;27;20040;-83
2023/08/07 02:08:01;;;;;;;5.28;2.47;;;15.20;99.90;;;;;;5118730;27;20039;-83
2023/08/07 02:10:28;;;;;;;7.47;2.40;;;15.20;99.90;;;;;;5123992;27;20486;-83
2023/08/07 02:12:53;;;;;;;8.75;3.10;;;15.20;99.90;;;;;;5118151;27;20246;-83
2023/08/07 02:15:19;;;;;;;7.82;2.75;;;15.10;99.90;;;;;;5109379;27;20566;-84
2023/08/07 02:17:44;;;;;;;8.63;2.97;;;15.20;99.90;;;;;;5111666;27;20758;-83
2023/08/07 02:20:11;;;;;;;6.63;2.47;;;15.20;99.90;;;;;;5110932;27;20036;-83
2023/08/07 02:22:36;;;;;;;12.15;2.92;;;15.20;99.90;;;;;;5124939;27;20092;-83
2023/08/07 02:25:02;;;;;;;8.20;2.70;;;15.20;99.90;;;;;;5098089;27;20199;-83
2023/08/07 02:27:28;;;;;;;9.90;3.65;;;15.20;99.90;;;;;;5108532;27;20047;-83
2023/08/07 02:29:54;;;;;;;8.80;2.40;;;15.20;99.90;;;;;;5109908;27;20530;-82
2023/08/07 02:32:19;;;;;;;8.23;2.53;;;15.20;99.90;;;;;;5110874;27;20508;-83
2023/08/07 02:34:47;;;;;;;13.40;2.83;;;15.20;99.90;;;;;;5110451;27;20136;-83
2023/08/07 02:37:12;;;;;;;5.88;2.03;;;15.10;99.90;;;;;;5110595;27;20047;-83
2023/08/07 02:39:38;;;;;;;9.07;2.58;;;15.20;99.90;;;;;;5114264;27;20036;-82
2023/08/07 02:42:04;;;;;;;8.57;2.17;;;15.10;99.90;;;;;;5112143;27;20040;-83
2023/08/07 02:44:29;;;;;;;8.10;2.45;;;15.20;99.90;;;;;;5121804;27;20040;-83
2023/08/07 02:46:55;;;;;;;6.10;2.00;;;15.10;99.90;;;;;;5109723;27;20030;-83
2023/08/07 02:49:21;;;;;;;10.27;2.58;;;15.30;99.90;;;;;;5105628;28;20123;-83
2023/08/07 02:51:46;;;;;;;6.43;2.15;;;15.10;99.90;;;;;;5109610;27;20032;-83
2023/08/07 02:54:12;;;;;;;10.95;2.38;;;15.20;99.90;;;;;;5114225;27;20964;-83
2023/08/07 02:56:38;;;;;;;13.43;3.05;;;15.20;99.90;;;;;;5115456;27;20039;-83
2023/08/07 02:59:04;;;;;;;10.65;2.50;;;15.20;99.90;;;;;;5115571;27;20409;-83
2023/08/07 03:01:30;;;;;;;9.30;2.45;;;15.20;99.90;;;;;;5094354;27;20136;-83
2023/08/07 03:03:56;;;;;;;6.45;1.95;;;15.10;99.90;;;;;;5133559;27;20063;-83
2023/08/07 03:06:21;;;;;;;13.30;2.58;;;15.10;99.90;;;;;;5135097;27;20091;-83
2023/08/07 03:08:47;;;;;;;10.18;2.30;;;15.10;99.90;;;;;;5115325;27;20031;-82
2023/08/07 03:11:13;;;;;;;12.60;2.47;;;15.10;99.90;;;;;;5134419;27;20121;-82
2023/08/07 03:13:38;;;;;;;8.93;2.60;;;15.10;99.90;;;;;;5135023;27;20084;-82
2023/08/07 03:16:06;;;;;;;12.27;3.50;;;15.10;99.90;;;;;;5119561;27;20390;-82
2023/08/07 03:18:32;;;;;;;13.77;3.10;;;15.10;99.90;;;;;;5110808;27;20494;-82
2023/08/07 03:20:58;;;;;;;11.52;2.88;;;15.10;99.90;;;;;;5133028;27;20039;-83
2023/08/07 03:23:24;;;;;;;9.75;2.60;;;15.10;99.90;;;;;;5116213;27;20149;-82
2023/08/07 03:25:51;;;;;;;6.43;2.35;;;15.10;99.90;;;;;;5129376;27;20038;-83
2023/08/07 03:28:17;;;;;;;13.43;2.78;;;15.10;99.90;;;;;;5115895;27;20047;-83
2023/08/07 03:30:44;;;;;;;8.57;2.58;;;15.10;99.90;;;;;;5117203;27;20070;-82
2023/08/07 03:33:10;;;;;;;15.02;3.33;;;15.10;99.90;;;;;;5135557;27;20091;-83
2023/08/07 03:35:36;;;;;;;9.77;2.80;;;15.00;99.90;;;;;;5127436;27;20034;-83
2023/08/07 03:38:01;;;;;;;9.35;2.60;;;15.10;99.90;;;;;;5112852;27;20125;-83
2023/08/07 03:40:27;;;;;;;13.25;3.22;;;15.00;99.90;;;;;;5128835;27;20489;-83
2023/08/07 03:42:52;;;;;;;7.03;2.33;;;15.00;99.90;;;;;;5121456;28;20037;-82
2023/08/07 03:45:18;;;;;;;7.18;2.47;;;15.00;99.90;;;;;;5129309;27;20047;-83
2023/08/07 03:47:43;;;;;;;12.35;2.78;;;15.00;99.90;;;;;;5130710;27;20039;-83
2023/08/07 03:50:09;;;;;;;10.10;2.67;;;15.00;99.90;;;;;;5112664;27;20035;-83
2023/08/07 03:52:35;;;;;;;12.52;3.20;;;15.00;99.90;;;;;;5114865;27;20089;-83
2023/08/07 03:55:00;;;;;;;9.75;2.67;;;15.10;99.90;;;;;;5110760;27;20039;-83
2023/08/07 03:57:26;;;;;;;11.02;2.83;;;15.00;99.90;;;;;;5114903;27;20034;-83
2023/08/07 03:59:51;;;;;;;13.90;3.30;;;14.90;99.90;;;;;;5141464;27;20381;-83
2023/08/07 04:02:17;;;;;;;6.47;2.22;;;15.00;99.90;;;;;;5140611;27;20051;-83
2023/08/07 04:04:43;;;;;;;10.10;2.50;;;14.90;99.90;;;;;;5118799;27;20382;-83
2023/08/07 04:07:08;;;;;;;19.00;2.85;;;14.90;99.90;;;;;;5115211;27;20032;-82
2023/08/07 04:09:34;;;;;;;10.90;2.70;;;15.00;99.90;;;;;;5131229;27;20300;-82
2023/08/07 04:11:59;;;;;;;7.45;2.42;;;15.00;99.90;;;;;;5133786;27;20035;-82
2023/08/07 04:14:26;;;;;;;10.95;2.75;;;15.00;99.90;;;;;;5114736;27;20031;-82
2023/08/07 04:16:51;;;;;;;9.43;2.85;;;14.90;99.90;;;;;;5127282;27;20039;-83
2023/08/07 04:19:17;;;;;;;15.48;2.88;;;15.00;99.90;;;;;;5139946;27;20771;-82
2023/08/07 04:21:42;;;;;;;9.25;2.50;;;15.10;99.90;;;;;;5121674;27;20041;-82
2023/08/07 04:24:10;;;;;;;9.52;2.47;;;15.00;99.90;;;;;;5117861;27;20035;-82
2023/08/07 04:26:37;;;;;;;11.57;2.88;;;15.00;99.90;;;;;;5132785;27;20035;-83
2023/08/07 04:29:02;;;;;;;9.45;2.72;;;15.00;99.90;;;;;;5142714;27;20035;-83
2023/08/07 04:31:30;;;;;;;6.57;2.58;;;15.10;99.90;;;;;;5104609;27;20029;-83
2023/08/07 04:33:57;;;;;;;13.02;3.15;;;15.10;99.90;;;;;;5122146;27;20110;-83
2023/08/07 04:36:22;;;;;;;8.25;2.53;;;15.10;99.90;;;;;;5113953;27;20051;-83
2023/08/07 04:38:49;;;;;;;8.70;2.60;;;15.10;99.90;;;;;;5117542;27;20038;-83
2023/08/07 04:41:14;;;;;;;7.25;2.25;;;15.10;99.90;;;;;;5098240;27;20213;-83
2023/08/07 04:43:41;;;;;;;13.35;3.22;;;15.10;99.90;;;;;;5135325;27;20055;-82
2023/08/07 04:46:06;;;;;;;14.45;3.20;;;15.10;99.90;;;;;;5132619;27;20059;-82
2023/08/07 04:48:32;;;;;;;7.97;2.60;;;15.10;99.90;;;;;;5114165;27;20032;-82
2023/08/07 04:50:58;;;;;;;7.13;2.60;;;15.40;99.90;;;;;;5119628;27;20049;-83
2023/08/07 04:53:24;;;;;;;11.90;2.60;;;15.10;99.90;;;;;;5131772;27;20035;-83
2023/08/07 04:55:49;;;;;;;7.25;2.50;;;15.10;99.90;;;;;;5118372;27;20039;-82
2023/08/07 04:58:15;;;;;;;10.60;2.53;;;15.10;99.90;;;;;;5131335;27;20092;-83
2023/08/07 05:00:41;;;;;;;10.07;3.00;;;15.10;99.90;;;;;;5139105;27;20126;-82
2023/08/07 05:03:06;;;;;;;11.07;3.17;;;15.10;99.90;;;;;;5135547;27;20134;-82
2023/08/07 05:05:32;;;;;;;13.65;3.08;;;15.30;99.90;;;;;;5106170;27;20043;-82
2023/08/07 05:07:58;;;;;;;11.52;3.00;;;15.20;99.90;;;;;;5113158;27;20031;-82
2023/08/07 05:10:24;;;;;;;8.85;2.75;;;15.20;99.90;;;;;;5133578;27;20576;-82
2023/08/07 05:12:55;;;;;;;12.43;2.80;;;15.20;99.90;;;;;;5116902;27;20118;-82
2023/08/07 05:15:24;;;;;;;11.32;2.92;;;15.20;99.90;;;;;;5113709;27;20463;-82
2023/08/07 05:17:51;;;;;;;12.50;3.25;;;15.20;99.90;;;;;;5134875;27;20046;-82
2023/08/07 05:20:17;;;;;;;11.13;2.65;;;15.20;99.90;;;;;;5138168;27;20452;-83
2023/08/07 05:22:43;;;;;;;9.48;2.67;;;15.20;99.90;;;;;;5131185;27;20118;-82
2023/08/07 05:25:11;;;;;;;13.48;2.97;;;15.30;99.90;;;;;;5104218;27;20039;-82
2023/08/07 05:27:36;;;;;;;14.07;3.78;;;15.40;99.90;;;;;;5113169;27;20040;-82
2023/08/07 05:30:02;;;;;;;12.15;3.13;;;15.30;99.90;;;;;;5142692;27;20091;-82
2023/08/07 05:32:28;;;;;;;11.35;3.10;;;15.30;99.90;;;;;;5131723;27;20157;-82
2023/08/07 05:34:54;;;;;;;13.18;3.30;;;15.30;99.90;;;;;;5131661;27;20104;-82
2023/08/07 05:37:19;;;;;;;10.70;3.38;;;15.30;99.90;;;;;;5112415;27;20502;-82
2023/08/07 05:39:45;;;;;;;16.60;3.28;;;15.40;99.90;;;;;;5135188;27;20035;-82
2023/08/07 05:42:12;;;;;;;14.50;2.75;;;15.40;99.90;;;;;;5114426;27;20047;-82
2023/08/07 05:44:38;;;;;;;11.05;3.30;;;15.50;99.90;;;;;;5099156;27;20118;-82
2023/08/07 05:47:03;;;;;;;11.15;2.85;;;15.50;99.90;;;;;;5127503;27;20119;-82
2023/08/07 05:49:29;;;;;;;10.73;3.67;;;15.40;99.90;;;;;;5125468;27;20065;-82
2023/08/07 05:51:55;;;;;;;13.07;3.20;;;15.40;99.90;;;;;;5135863;27;20062;-82
2023/08/07 05:54:20;;;;;;;16.48;3.78;;;15.40;99.90;;;;;;5102308;27;20062;-82
2023/08/07 05:56:46;;;;;;;15.23;3.53;;;15.40;99.90;;;;;;5113161;27;20035;-82
2023/08/07 05:59:12;;;;;;;17.70;3.83;;;15.30;99.90;;;;;;5131498;27;20046;-82
2023/08/07 06:01:37;;;;;;;16.10;3.53;;;15.40;99.90;;;;;;5120038;27;20529;-82
2023/08/07 06:04:03;;;;;;;12.43;3.17;;;15.40;99.90;;;;;;5114502;27;20058;-82
2023/08/07 06:06:29;;;;;;;13.43;3.22;;;15.40;99.90;;;;;;5111997;27;20402;-84
2023/08/07 06:08:55;;;;;;;15.75;3.25;;;15.50;99.90;;;;;;5116312;27;20050;-83
2023/08/07 06:11:21;;;;;;;14.75;3.40;;;15.60;99.90;;;;;;5112250;27;20039;-83
2023/08/07 06:13:46;;;;;;;16.95;4.32;;;15.60;99.90;;;;;;5112614;27;20030;-83
2023/08/07 06:16:12;;;;;;;12.88;3.38;;;15.70;99.90;;;;;;5113438;27;20047;-82
2023/08/07 06:18:38;;;;;;;10.13;2.72;;;15.70;99.90;;;;;;5132123;27;20035;-82
2023/08/07 06:21:06;;;;;;;8.85;2.65;;;15.70;99.90;;;;;;5135545;27;20038;-82
2023/08/07 06:23:33;;;;;;;10.02;2.60;;;15.70;99.90;;;;;;5130433;27;20039;-83
2023/08/07 06:25:58;;;;;;;12.13;3.15;;;15.60;99.90;;;;;;5130658;27;20031;-83
2023/08/07 06:28:24;;;;;;;14.25;3.33;;;15.60;99.90;;;;;;5112608;27;20046;-83
2023/08/07 06:30:49;;;;;;;14.52;2.65;;;15.60;99.90;;;;;;5137317;27;20027;-83
2023/08/07 06:33:15;;;;;;;15.05;3.38;;;15.50;99.90;;;;;;5117438;27;20042;-83
2023/08/07 06:35:42;;;;;;;11.77;3.13;;;15.50;99.90;;;;;;5099140;27;20283;-83
2023/08/07 06:38:08;;;;;;;14.45;3.08;;;15.60;99.90;;;;;;5116364;27;20035;-82
2023/08/07 06:40:37;;;;;;;8.88;2.75;;;15.50;99.90;;;;;;5140372;27;20080;-82
2023/08/07 06:43:03;;;;;;;14.98;3.25;;;15.50;99.90;;;;;;5117587;27;20051;-83
2023/08/07 06:45:28;;;;;;;9.90;2.80;;;15.50;99.90;;;;;;5105361;27;20393;-83
2023/08/07 06:47:54;;;;;;;9.55;2.83;;;15.60;99.90;;;;;;5115244;27;20039;-82
2023/08/07 06:50:20;;;;;;;12.52;3.33;;;15.60;99.90;;;;;;5132614;27;20443;-82
2023/08/07 06:52:45;;;;;;;19.20;2.95;;;15.60;99.90;;;;;;5130866;27;20063;-83
2023/08/07 06:55:11;;;;;;;14.65;3.45;;;15.70;99.90;;;;;;5138715;27;20038;-82
2023/08/07 06:57:36;;;;;;;13.07;3.10;;;15.70;99.90;;;;;;5116256;27;20046;-82
2023/08/07 07:00:03;;;;;;;11.85;3.30;;;15.70;99.90;;;;;;5130483;27;20460;-82
2023/08/07 07:02:29;;;;;;;9.23;2.45;;;15.70;99.90;;;;;;5128731;27;20162;-82
2023/08/07 07:04:54;;;;;;;10.20;2.63;;;15.70;99.90;;;;;;5132652;27;20122;-82
2023/08/07 07:07:20;;;;;;;10.75;2.53;;;15.70;99.90;;;;;;5129939;27;20070;-82
2023/08/07 07:09:45;;;;;;;14.27;3.63;;;15.70;99.90;;;;;;5129346;27;20047;-82
2023/08/07 07:12:11;;;;;;;9.45;2.30;;;15.70;99.90;;;;;;5132682;27;20106;-82
2023/08/07 07:14:37;;;;;;;9.07;2.40;;;15.70;99.90;;;;;;5140135;27;20072;-81
2023/08/07 07:17:03;;;;;;;9.75;1.98;;;15.80;99.90;;;;;;5132195;27;20083;-82
2023/08/07 07:19:28;;;;;;;11.05;2.53;;;15.80;99.90;;;;;;5131684;27;20100;-82
2023/08/07 07:21:54;;;;;;;9.48;2.45;;;15.90;99.90;;;;;;5130179;27;20134;-82
2023/08/07 07:24:20;;;;;;;13.43;3.00;;;15.80;99.90;;;;;;5133093;27;20039;-82
2023/08/07 07:26:45;;;;;;;11.32;2.35;;;15.70;99.90;;;;;;5131919;27;20054;-82
2023/08/07 07:29:11;;;;;;;9.23;2.40;;;15.70;99.90;;;;;;5129957;27;20453;-82
2023/08/07 07:31:37;;;;;;;7.65;2.05;;;15.60;99.90;;;;;;5110703;27;20069;-82
2023/08/07 07:34:02;;;;;;;8.57;2.20;;;15.60;99.90;;;;;;5114864;27;20047;-82
2023/08/07 07:36:29;;;;;;;9.43;2.20;;;15.60;99.90;;;;;;5133463;27;20053;-82
2023/08/07 07:38:54;;;;;;;10.43;2.30;;;15.60;99.90;;;;;;5129666;27;20111;-82
2023/08/07 07:41:23;;;;;;;10.10;1.90;;;15.70;99.90;;;;;;5094602;27;20035;-82
2023/08/07 07:43:49;;;;;;;10.10;2.35;;;15.80;99.90;;;;;;5134952;27;20031;-82
2023/08/07 07:46:15;;;;;;;8.50;2.20;;;15.70;99.90;;;;;;5115671;28;20039;-82
2023/08/07 07:48:40;;;;;;;8.30;2.33;;;15.60;99.90;;;;;;5110891;28;20043;-83
2023/08/07 07:51:06;;;;;;;11.85;2.28;;;15.50;99.90;;;;;;5102046;27;20393;-82
2023/08/07 07:53:31;;;;;;;9.20;2.42;;;15.60;99.90;;;;;;5128654;27;20039;-82
2023/08/07 07:55:57;;;;;;;9.23;2.22;;;15.50;99.90;;;;;;5131591;27;20035;-81
2023/08/07 07:58:23;;;;;;;9.02;2.35;;;15.60;99.90;;;;;;5124515;27;20078;-81
2023/08/07 08:00:52;;;;;;;11.98;2.88;;;15.60;99.90;;;;;;5128537;27;20027;-81
2023/08/07 08:03:17;;;;;;;9.48;2.67;;;15.60;99.90;;;;;;5132790;27;20059;-81
2023/08/07 08:05:43;;;;;;;7.97;2.40;;;15.80;99.90;;;;;;5110958;27;20409;-81
2023/08/07 08:08:09;;;;;;;11.32;2.30;;;15.70;99.90;;;;;;5113228;27;20862;-81
2023/08/07 08:10:35;;;;;;;13.18;3.08;;;15.80;99.90;;;;;;5131310;27;20099;-81
2023/08/07 08:13:00;;;;;;;10.60;2.33;;;15.90;99.90;;;;;;5111078;27;20477;-81
2023/08/07 08:15:26;;;;;;;14.55;2.97;;;15.80;99.90;;;;;;5128138;27;20082;-81
2023/08/07 08:17:52;;;;;;;8.32;2.72;;;15.80;99.90;;;;;;5122684;27;20030;-81
2023/08/07 08:20:18;;;;;;;9.63;2.33;;;15.70;99.90;;;;;;5092868;27;20031;-81
2023/08/07 08:22:45;;;;;;;8.98;2.70;;;15.60;99.90;;;;;;5121397;27;20433;-81
2023/08/07 08:25:11;;;;;;;14.90;2.92;;;15.60;99.90;;;;;;5133434;27;20067;-81
2023/08/07 08:27:37;;;;;;;10.25;2.65;;;15.60;99.90;;;;;;5114355;27;20051;-81
2023/08/07 08:30:04;;;;;;;11.55;3.05;;;15.60;99.90;;;;;;5096407;27;20043;-81
2023/08/07 08:32:29;;;;;;;8.38;2.78;;;15.50;99.90;;;;;;5129051;27;20315;-81
2023/08/07 08:34:55;;;;;;;13.45;3.60;;;15.50;99.90;;;;;;5129026;27;20595;-81
2023/08/07 08:37:21;;;;;;;9.57;3.25;;;15.60;99.90;;;;;;5116965;27;20713;-81
2023/08/07 08:39:47;;;;;;;11.18;2.78;;;15.50;99.90;;;;;;5133185;27;20461;-81
2023/08/07 08:42:13;;;;;;;12.77;2.83;;;15.50;99.90;;;;;;5124590;28;20043;-81
2023/08/07 08:44:40;;;;;;;12.35;3.00;;;15.50;99.90;;;;;;5131407;27;20600;-82
2023/08/07 08:47:07;;;;;;;10.20;3.45;;;15.80;99.90;;;;;;5113218;27;20521;-81
2023/08/07 08:49:43;;;;;;;11.88;3.75;;;15.70;99.90;;;;;;5111214;27;20065;-82
2023/08/07 08:52:10;;;;;;;9.57;2.83;;;15.80;99.90;;;;;;5119996;27;20141;-81
2023/08/07 08:54:36;;;;;;;12.30;3.40;;;15.80;99.90;;;;;;5140811;27;20047;-81
2023/08/07 08:57:03;;;;;;;14.27;3.42;;;15.90;99.90;;;;;;5114325;27;20084;-81
2023/08/07 08:59:28;;;;;;;14.10;3.10;;;15.90;99.90;;;;;;5098724;27;20501;-82
2023/08/07 09:01:54;;;;;;;11.50;2.70;;;16.10;99.90;;;;;;5135724;27;20054;-81
2023/08/07 09:04:20;;;;;;;11.88;2.80;;;16.20;99.90;;;;;;5117527;27;20043;-83
2023/08/07 09:06:47;;;;;;;12.23;3.42;;;16.30;99.90;;;;;;5114488;27;20039;-82
2023/08/07 09:09:14;;;;;;;12.70;2.85;;;16.50;99.90;;;;;;5117555;27;20141;-82
2023/08/07 09:11:42;;;;;;;11.63;2.30;;;16.60;99.90;;;;;;5140841;27;20046;-82
2023/08/07 09:14:10;;;;;;;5.90;1.90;;;16.70;99.90;;;;;;5118809;27;20478;-82
2023/08/07 09:16:36;;;;;;;9.25;2.25;;;16.80;99.90;;;;;;5118899;27;20039;-82
2023/08/07 09:19:02;;;;;;;9.40;2.33;;;16.90;99.90;;;;;;5135578;27;20050;-83
2023/08/07 09:21:28;;;;;;;10.75;2.30;;;17.00;99.90;;;;;;5124719;27;20390;-82
2023/08/07 09:23:54;;;;;;;11.95;2.35;;;17.00;99.90;;;;;;5120543;27;20038;-83
2023/08/07 09:26:24;;;;;;;8.07;2.05;;;17.10;99.90;;;;;;5118212;27;20043;-83
2023/08/07 09:28:53;;;;;;;10.20;1.98;;;17.20;99.90;;;;;;5117053;27;20053;-82
2023/08/07 09:31:19;;;;;;;7.05;2.17;;;17.30;99.90;;;;;;5135880;27;20504;-83
2023/08/07 09:33:48;;;;;;;7.47;2.15;;;17.30;99.90;;;;;;5133588;27;20054;-83
2023/08/07 09:36:14;;;;;;;7.97;1.90;;;17.40;99.90;;;;;;5131503;27;20039;-83
2023/08/07 09:38:39;;;;;;;11.35;1.85;;;17.40;99.90;;;;;;5122869;27;20039;-82
2023/08/07 09:41:05;;;;;;;7.72;1.88;;;17.40;99.90;;;;;;5131563;27;20042;-83
2023/08/07 09:43:37;;;;;;;14.32;2.60;;;17.50;99.90;;;;;;5095231;27;20047;-83
2023/08/07 09:46:07;;;;;;;7.55;1.50;;;17.50;99.90;;;;;;5113402;27;20055;-83
2023/08/07 09:48:42;;;;;;;6.45;1.67;;;17.60;99.90;;;;;;5138080;27;20039;-82
2023/08/07 09:51:08;;;;;;;9.73;2.10;;;17.70;99.90;;;;;;5120038;27;20135;-83
2023/08/07 09:53:33;;;;;;;9.35;2.08;;;17.80;99.90;;;;;;5115761;27;20857;-83
2023/08/07 09:56:00;;;;;;;8.73;1.83;;;17.70;99.90;;;;;;5119012;27;20081;-83
2023/08/07 09:58:25;;;;;;;7.65;1.92;;;17.70;99.90;;;;;;5131304;27;20069;-83
2023/08/07 10:00:59;;;;;;;8.48;2.22;;;17.70;99.90;;;;;;5112786;27;20903;-84
2023/08/07 10:03:28;;;;;;;12.73;2.35;;;17.80;99.90;;;;;;5129950;27;20083;-84
2023/08/07 10:05:54;;;;;;;7.53;2.28;;;17.90;99.90;;;;;;5130614;27;20053;-83
2023/08/07 10:08:21;;;;;;;10.98;2.10;;;18.00;99.90;;;;;;5130597;27;20039;-83
2023/08/07 10:10:47;;;;;;;10.95;2.00;;;18.10;99.90;;;;;;5133215;27;20054;-83
2023/08/07 10:13:13;;;;;;;11.07;2.35;;;18.10;99.90;;;;;;5117255;27;20066;-83
2023/08/07 10:15:43;;;;;;;13.65;2.08;;;18.00;99.90;;;;;;5118523;27;20034;-84
2023/08/07 10:18:09;;;;;;;7.85;1.92;;;17.90;99.90;;;;;;5138808;27;20780;-84
2023/08/07 10:20:36;;;;;;;12.50;2.30;;;17.90;99.90;;;;;;5117853;27;20038;-84
2023/08/07 10:23:09;;;;;;;7.70;1.88;;;17.90;99.90;;;;;;5134016;27;20042;-84
2023/08/07 10:25:43;;;;;;;10.02;2.17;;;17.90;99.90;;;;;;5124030;27;20199;-84
2023/08/07 10:28:12;;;;;;;8.83;1.93;;;17.90;99.90;;;;;;5130336;27;20560;-83
2023/08/07 10:30:39;;;;;;;11.65;3.10;;;17.80;99.90;;;;;;5114691;27;20051;-84
2023/08/07 10:33:07;;;;;;;6.78;2.05;;;17.80;99.90;;;;;;5114660;27;20123;-84
2023/08/07 10:35:33;;;;;;;11.13;3.08;;;17.90;99.90;;;;;;5118982;27;20516;-84
2023/08/07 10:38:10;;;;;;;9.30;2.75;;;17.90;99.90;;;;;;5102500;27;20038;-84
2023/08/07 10:40:58;;;;;;;8.05;1.92;;;18.00;99.90;;;;;;5135307;27;20129;-84
2023/08/07 10:43:24;;;;;;;10.52;2.15;;;17.90;99.90;;;;;;5141209;27;20043;-82
2023/08/07 10:45:50;;;;;;;13.38;2.45;;;17.90;99.90;;;;;;5135945;27;20046;-81
2023/08/07 10:48:20;;;;;;;7.00;1.80;;;17.80;99.90;;;;;;5120390;27;20043;-82
2023/08/07 10:50:54;;;;;;;8.15;1.83;;;17.80;99.90;;;;;;5112499;27;20046;-82
2023/08/07 10:53:38;;;;;;;5.90;1.60;;;17.80;99.90;;;;;;5114442;27;20077;-82
2023/08/07 10:56:07;;;;;;;6.40;1.80;;;18.00;99.90;;;;;;5125065;27;20062;-82
2023/08/07 10:58:37;;;;;;;11.25;2.88;;;18.20;99.90;;;;;;5135879;27;20035;-82
2023/08/07 11:01:21;;;;;;;11.50;2.22;;;18.40;99.90;;;;;;5126366;27;20413;-82
2023/08/07 11:04:05;;;;;;;7.22;1.92;;;18.50;99.90;;;;;;5139469;27;20054;-82
2023/08/07 11:06:34;;;;;;;9.05;1.80;;;18.40;99.90;;;;;;5113777;27;20035;-83
2023/08/07 11:09:02;;;;;;;9.02;2.03;;;18.20;99.90;;;;;;5098868;27;20034;-83
2023/08/07 11:11:29;;;;;;;6.07;1.70;;;18.30;99.90;;;;;;5132890;27;20041;-83
2023/08/07 11:13:54;;;;;;;6.32;1.27;;;18.40;99.90;;;;;;5097790;27;20035;-82
2023/08/07 11:16:21;;;;;;;6.38;1.20;;;18.50;99.90;;;;;;5137176;27;20418;-82
2023/08/07 11:18:48;;;;;;;5.97;1.33;;;18.60;99.90;;;;;;5135908;27;20038;-82
2023/08/07 11:21:14;;;;;;;6.72;1.25;;;18.60;99.90;;;;;;5124936;27;20490;-81
2023/08/07 11:23:40;;;;;;;8.23;1.63;;;18.50;99.90;;;;;;5132294;27;20043;-82
2023/08/07 11:26:06;;;;;;;8.38;1.77;;;18.50;99.90;;;;;;5125022;27;20043;-81
2023/08/07 11:28:32;;;;;;;5.35;1.25;;;18.50;99.90;;;;;;5118414;27;20475;-82
2023/08/07 11:30:58;;;;;;;10.25;1.88;;;18.60;99.90;;;;;;5114114;27;20297;-83
2023/08/07 11:33:25;;;;;;;8.07;1.67;;;18.60;99.90;;;;;;5111147;27;20031;-83
2023/08/07 11:35:51;;;;;;;7.38;1.98;;;18.60;99.90;;;;;;5095127;27;20042;-83
2023/08/07 11:38:34;;;;;;;8.95;1.70;;;18.50;99.90;;;;;;5094312;27;20043;-82
2023/08/07 11:41:08;;;;;;;9.48;1.58;;;18.40;99.90;;;;;;5099415;27;20046;-83
2023/08/07 11:43:34;;;;;;;5.97;1.85;;;18.30;99.90;;;;;;5111366;28;20031;-82
2023/08/07 11:46:05;;;;;;;5.88;1.60;;;18.30;99.90;;;;;;5096100;27;20043;-83
2023/08/07 11:48:34;;;;;;;7.45;1.60;;;18.30;99.90;;;;;;5113283;27;20282;-83
2023/08/07 11:51:00;;;;;;;7.55;2.00;;;18.30;99.90;;;;;;5112341;27;20045;-82
2023/08/07 11:53:30;;;;;;;10.77;1.80;;;18.30;99.90;;;;;;5129315;27;20114;-82
2023/08/07 11:56:05;;;;;;;8.57;1.42;;;18.30;99.90;;;;;;5106028;27;20042;-83
2023/08/07 11:58:36;;;;;;;9.50;2.30;;;18.30;99.90;;;;;;5115009;27;20043;-82
2023/08/07 12:01:06;;;;;;;8.43;1.42;;;18.30;99.90;;;;;;5112883;28;20086;-83
2023/08/07 12:03:57;;;;;;;7.47;1.52;;;18.20;99.90;;;;;;5115142;28;20088;-83
2023/08/07 12:06:24;;;;;;;5.70;1.70;;;18.10;99.90;;;;;;5128306;27;20067;-82
2023/08/07 12:08:53;;;;;;;6.70;2.45;;;18.10;99.90;;;;;;5120853;27;20035;-82
2023/08/07 12:11:23;;;;;;;9.00;2.13;;;18.00;99.90;;;;;;5134126;27;20177;-83
2023/08/07 12:13:49;;;;;;;5.05;1.50;;;17.90;99.90;;;;;;5140951;27;20035;-82
2023/08/07 12:16:16;;;;;;;9.90;1.92;;;17.70;99.90;;;;;;5138516;27;20091;-82
2023/08/07 12:18:46;;;;;;;7.35;2.00;;;17.70;99.90;;;;;;5121052;27;20548;-83
2023/08/07 12:21:14;;;;;;;7.22;1.67;;;17.70;99.90;;;;;;5134085;27;20050;-82
2023/08/07 12:23:40;;;;;;;10.48;2.00;;;17.70;99.90;;;;;;5135191;27;20050;-84
2023/08/07 12:26:07;;;;;;;11.77;2.70;;;17.60;99.90;;;;;;5117499;27;20097;-82
2023/08/07 12:28:36;;;;;;;6.85;2.22;;;17.50;99.90;;;;;;5119873;27;20037;-83
2023/08/07 12:31:02;;;;;;;4.70;1.58;;;17.30;99.90;;;;;;5139500;27;20477;-86
2023/08/07 12:33:29;;;;;;;9.68;2.08;;;17.10;99.90;;;;;;5137492;27;20038;-85
2023/08/07 12:35:55;;;;;;;4.85;1.67;;;16.90;99.90;;;;;;5122233;27;20039;-85
2023/08/07 12:38:21;;;;;;;3.30;1.30;;;16.60;99.90;;;;;;5141154;27;20038;-84
2023/08/07 12:40:47;;;;;;;5.68;1.83;;;16.50;99.90;;;;;;5104563;27;20042;-85